sensor_id;sensor_type;location;lat;lon;timestamp;temperature;humidity
3310;DHT22;1667;53.238;10.394;2023-09-19T00:00:30;20.10;99.90
3310;DHT22;1667;53.238;10.394;2023-09-19T00:05:34;20.00;99.90
3310;DHT22;1667;53.238;10.394;2023-09-19T00:10:36;20.10;99.90
3310;DHT22;1667;53.238;10.394;2023-09-19T00:15:39;20.00;99.90
3310;DHT22;1667;53.238;10.394;2023-09-19T00:20:39;19.90;99.90
3310;DHT22;1667;53.238;10.394;2023-09-19T00:25:42;19.90;99.90
3310;DHT22;1667;53.238;10.394;2023-09-19T00:30:43;19.90;99.90
3310;DHT22;1667;53.238;10.394;2023-09-19T00:35:47;19.80;99.90
3310;DHT22;1667;53.238;10.394;2023-09-19T00:40:49;19.80;99.90
3310;DHT22;1667;53.238;10.394;2023-09-19T00:45:51;19.80;99.90
3310;DHT22;1667;53.238;10.394;2023-09-19T00:50:51;19.70;99.90
3310;DHT22;1667;53.238;10.394;2023-09-19T00:55:54;19.70;99.90
3310;DHT22;1667;53.238;10.394;2023-09-19T01:00:57;19.60;99.90
3310;DHT22;1667;53.238;10.394;2023-09-19T01:05:56;19.60;99.90
3310;DHT22;1667;53.238;10.394;2023-09-19T01:11:03;19.60;99.90
3310;DHT22;1667;53.238;10.394;2023-09-19T01:16:17;19.60;99.90
3310;DHT22;1667;53.238;10.394;2023-09-19T01:21:32;19.50;99.90
3310;DHT22;1667;53.238;10.394;2023-09-19T01:26:56;19.50;99.90
3310;DHT22;1667;53.238;10.394;2023-09-19T01:32:04;19.50;99.90
3310;DHT22;1667;53.238;10.394;2023-09-19T01:37:07;19.50;99.90
3310;DHT22;1667;53.238;10.394;2023-09-19T01:42:12;19.50;99.90
3310;DHT22;1667;53.238;10.394;2023-09-19T01:47:23;19.50;99.90
3310;DHT22;1667;53.238;10.394;2023-09-19T01:52:30;19.50;99.90
3310;DHT22;1667;53.238;10.394;2023-09-19T01:57:35;19.50;99.90
3310;DHT22;1667;53.238;10.394;2023-09-19T02:02:49;19.40;99.90
3310;DHT22;1667;53.238;10.394;2023-09-19T02:08:00;19.50;99.90
3310;DHT22;1667;53.238;10.394;2023-09-19T02:13:01;19.40;99.90
3310;DHT22;1667;53.238;10.394;2023-09-19T02:18:07;19.40;99.90
3310;DHT22;1667;53.238;10.394;2023-09-19T02:23:06;19.40;99.90
3310;DHT22;1667;53.238;10.394;2023-09-19T02:28:11;19.40;99.90
3310;DHT22;1667;53.238;10.394;2023-09-19T02:33:12;19.30;99.90
3310;DHT22;1667;53.238;10.394;2023-09-19T02:38:12;19.20;99.90
3310;DHT22;1667;53.238;10.394;2023-09-19T02:43:16;19.20;99.90
3310;DHT22;1667;53.238;10.394;2023-09-19T02:48:20;19.20;99.90
3310;DHT22;1667;53.238;10.394;2023-09-19T02:53:24;19.10;99.90
3310;DHT22;1667;53.238;10.394;2023-09-19T02:58:24;19.10;99.90
3310;DHT22;1667;53.238;10.394;2023-09-19T03:03:28;19.10;99.90
3310;DHT22;1667;53.238;10.394;2023-09-19T03:08:29;19.10;99.90
3310;DHT22;1667;53.238;10.394;2023-09-19T03:13:34;19.10;99.90
3310;DHT22;1667;53.238;10.394;2023-09-19T03:18:38;19.10;99.90
3310;DHT22;1667;53.238;10.394;2023-09-19T03:23:39;19.00;99.90
3310;DHT22;1667;53.238;10.394;2023-09-19T03:28:40;19.00;99.90
3310;DHT22;1667;53.238;10.394;2023-09-19T03:33:43;19.00;99.90
3310;DHT22;1667;53.238;10.394;2023-09-19T03:38:43;18.90;99.90
3310;DHT22;1667;53.238;10.394;2023-09-19T03:43:47;18.90;99.90
3310;DHT22;1667;53.238;10.394;2023-09-19T03:48:49;18.80;99.90
3310;DHT22;1667;53.238;10.394;2023-09-19T03:53:51;18.80;99.90
3310;DHT22;1667;53.238;10.394;2023-09-19T03:58:52;18.70;99.90
3310;DHT22;1667;53.238;10.394;2023-09-19T04:03:54;18.60;99.90
3310;DHT22;1667;53.238;10.394;2023-09-19T04:08:55;18.60;99.90
3310;DHT22;1667;53.238;10.394;2023-09-19T04:13:55;18.60;99.90
3310;DHT22;1667;53.238;10.394;2023-09-19T04:18:58;18.50;99.90
3310;DHT22;1667;53.238;10.394;2023-09-19T04:23:58;18.50;99.90
3310;DHT22;1667;53.238;10.394;2023-09-19T04:28:58;18.50;99.90
3310;DHT22;1667;53.238;10.394;2023-09-19T04:34:00;18.50;99.90
3310;DHT22;1667;53.238;10.394;2023-09-19T04:39:03;18.40;99.90
3310;DHT22;1667;53.238;10.394;2023-09-19T04:44:05;18.40;99.90
3310;DHT22;1667;53.238;10.394;2023-09-19T04:49:08;18.30;99.90
3310;DHT22;1667;53.238;10.394;2023-09-19T04:54:08;18.30;99.90
3310;DHT22;1667;53.238;10.394;2023-09-19T04:59:12;18.30;99.90
3310;DHT22;1667;53.238;10.394;2023-09-19T05:04:14;18.20;99.90
3310;DHT22;1667;53.238;10.394;2023-09-19T05:09:16;18.20;99.90
3310;DHT22;1667;53.238;10.394;2023-09-19T05:14:18;18.10;99.90
3310;DHT22;1667;53.238;10.394;2023-09-19T05:19:21;18.10;99.90
3310;DHT22;1667;53.238;10.394;2023-09-19T05:24:22;18.00;99.90
3310;DHT22;1667;53.238;10.394;2023-09-19T05:29:25;18.00;99.90
3310;DHT22;1667;53.238;10.394;2023-09-19T05:34:26;17.90;99.90
3310;DHT22;1667;53.238;10.394;2023-09-19T05:39:29;17.90;99.90
3310;DHT22;1667;53.238;10.394;2023-09-19T05:44:30;17.90;99.90
3310;DHT22;1667;53.238;10.394;2023-09-19T05:49:32;17.90;99.90
3310;DHT22;1667;53.238;10.394;2023-09-19T05:54:32;17.90;99.90
3310;DHT22;1667;53.238;10.394;2023-09-19T05:59:32;17.80;99.90
3310;DHT22;1667;53.238;10.394;2023-09-19T06:04:34;17.80;99.90
3310;DHT22;1667;53.238;10.394;2023-09-19T06:09:35;17.80;99.90
3310;DHT22;1667;53.238;10.394;2023-09-19T06:14:36;17.80;99.90
3310;DHT22;1667;53.238;10.394;2023-09-19T06:19:40;17.70;99.90
3310;DHT22;1667;53.238;10.394;2023-09-19T06:24:46;17.80;99.90
3310;DHT22;1667;53.238;10.394;2023-09-19T06:29:53;17.70;99.90
3310;DHT22;1667;53.238;10.394;2023-09-19T06:34:55;17.80;99.90
3310;DHT22;1667;53.238;10.394;2023-09-19T06:39:57;17.80;99.90
3310;DHT22;1667;53.238;10.394;2023-09-19T06:44:58;17.90;99.90
3310;DHT22;1667;53.238;10.394;2023-09-19T06:50:00;17.90;99.90
3310;DHT22;1667;53.238;10.394;2023-09-19T06:55:01;18.00;99.90
3310;DHT22;1667;53.238;10.394;2023-09-19T07:00:06;18.10;99.90
3310;DHT22;1667;53.238;10.394;2023-09-19T07:05:09;18.10;99.90
3310;DHT22;1667;53.238;10.394;2023-09-19T07:10:10;18.20;99.90
3310;DHT22;1667;53.238;10.394;2023-09-19T07:15:12;18.30;99.90
3310;DHT22;1667;53.238;10.394;2023-09-19T07:20:15;18.40;99.90
3310;DHT22;1667;53.238;10.394;2023-09-19T07:25:15;18.40;99.90
3310;DHT22;1667;53.238;10.394;2023-09-19T07:30:16;18.50;99.90
3310;DHT22;1667;53.238;10.394;2023-09-19T07:35:17;18.60;99.90
3310;DHT22;1667;53.238;10.394;2023-09-19T07:40:18;18.60;99.90
3310;DHT22;1667;53.238;10.394;2023-09-19T07:45:19;18.70;99.90
3310;DHT22;1667;53.238;10.394;2023-09-19T07:50:20;18.80;99.90
3310;DHT22;1667;53.238;10.394;2023-09-19T07:55:20;18.80;99.90
3310;DHT22;1667;53.238;10.394;2023-09-19T08:00:22;18.90;99.90
3310;DHT22;1667;53.238;10.394;2023-09-19T08:05:24;19.00;99.90
3310;DHT22;1667;53.238;10.394;2023-09-19T08:10:25;19.10;99.90
3310;DHT22;1667;53.238;10.394;2023-09-19T08:15:26;19.20;99.90
3310;DHT22;1667;53.238;10.394;2023-09-19T08:20:28;19.30;99.90
3310;DHT22;1667;53.238;10.394;2023-09-19T08:25:28;19.40;99.70
3310;DHT22;1667;53.238;10.394;2023-09-19T08:30:29;19.50;99.40
3310;DHT22;1667;53.238;10.394;2023-09-19T08:35:30;19.60;99.30
3310;DHT22;1667;53.238;10.394;2023-09-19T08:40:32;19.70;99.20
3310;DHT22;1667;53.238;10.394;2023-09-19T08:45:33;19.80;99.10
3310;DHT22;1667;53.238;10.394;2023-09-19T08:50:41;20.00;98.70
3310;DHT22;1667;53.238;10.394;2023-09-19T08:55:43;20.00;98.90
3310;DHT22;1667;53.238;10.394;2023-09-19T09:00:48;20.10;98.60
3310;DHT22;1667;53.238;10.394;2023-09-19T09:05:51;20.30;98.40
3310;DHT22;1667;53.238;10.394;2023-09-19T09:10:55;20.30;97.90
3310;DHT22;1667;53.238;10.394;2023-09-19T09:16:01;20.40;97.70
3310;DHT22;1667;53.238;10.394;2023-09-19T09:21:06;20.50;97.50
3310;DHT22;1667;53.238;10.394;2023-09-19T09:26:15;20.70;97.30
3310;DHT22;1667;53.238;10.394;2023-09-19T09:31:23;20.80;97.40
3310;DHT22;1667;53.238;10.394;2023-09-19T09:36:35;21.00;97.00
3310;DHT22;1667;53.238;10.394;2023-09-19T09:41:36;21.10;95.90
3310;DHT22;1667;53.238;10.394;2023-09-19T09:46:42;21.20;95.70
3310;DHT22;1667;53.238;10.394;2023-09-19T09:52:19;21.20;96.00
3310;DHT22;1667;53.238;10.394;2023-09-19T09:57:23;21.30;95.70
3310;DHT22;1667;53.238;10.394;2023-09-19T10:02:28;21.40;95.20
3310;DHT22;1667;53.238;10.394;2023-09-19T10:07:33;21.50;95.10
3310;DHT22;1667;53.238;10.394;2023-09-19T10:12:33;21.50;95.20
3310;DHT22;1667;53.238;10.394;2023-09-19T10:17:37;21.60;95.40
3310;DHT22;1667;53.238;10.394;2023-09-19T10:22:40;21.70;95.30
3310;DHT22;1667;53.238;10.394;2023-09-19T10:27:41;21.80;94.50
3310;DHT22;1667;53.238;10.394;2023-09-19T10:32:43;22.00;94.80
3310;DHT22;1667;53.238;10.394;2023-09-19T10:37:48;22.10;94.40
3310;DHT22;1667;53.238;10.394;2023-09-19T10:42:50;22.20;94.80
3310;DHT22;1667;53.238;10.394;2023-09-19T10:47:51;22.30;94.40
3310;DHT22;1667;53.238;10.394;2023-09-19T10:52:54;22.30;93.80
3310;DHT22;1667;53.238;10.394;2023-09-19T10:57:59;22.30;93.50
3310;DHT22;1667;53.238;10.394;2023-09-19T11:03:20;22.40;93.80
3310;DHT22;1667;53.238;10.394;2023-09-19T11:08:22;22.50;93.50
3310;DHT22;1667;53.238;10.394;2023-09-19T11:13:25;22.60;93.20
3310;DHT22;1667;53.238;10.394;2023-09-19T11:18:51;22.60;92.90
3310;DHT22;1667;53.238;10.394;2023-09-19T11:24:28;22.60;92.90
3310;DHT22;1667;53.238;10.394;2023-09-19T11:29:31;22.70;92.60
3310;DHT22;1667;53.238;10.394;2023-09-19T11:34:47;22.60;92.20
3310;DHT22;1667;53.238;10.394;2023-09-19T11:40:08;22.70;92.70
3310;DHT22;1667;53.238;10.394;2023-09-19T11:50:43;22.80;92.20
3310;DHT22;1667;53.238;10.394;2023-09-19T11:55:46;22.80;92.40
3310;DHT22;1667;53.238;10.394;2023-09-19T12:00:54;22.80;92.10
3310;DHT22;1667;53.238;10.394;2023-09-19T12:05:56;22.80;92.00
3310;DHT22;1667;53.238;10.394;2023-09-19T12:10:59;22.90;91.80
3310;DHT22;1667;53.238;10.394;2023-09-19T12:15:59;23.00;91.90
3310;DHT22;1667;53.238;10.394;2023-09-19T12:21:03;23.00;92.00
3310;DHT22;1667;53.238;10.394;2023-09-19T12:26:06;23.10;92.30
3310;DHT22;1667;53.238;10.394;2023-09-19T12:31:11;23.20;92.00
3310;DHT22;1667;53.238;10.394;2023-09-19T12:36:20;23.30;92.00
3310;DHT22;1667;53.238;10.394;2023-09-19T12:41:30;23.30;91.60
3310;DHT22;1667;53.238;10.394;2023-09-19T12:46:30;23.40;92.00
3310;DHT22;1667;53.238;10.394;2023-09-19T12:51:35;23.40;91.80
3310;DHT22;1667;53.238;10.394;2023-09-19T12:56:41;23.50;91.00
3310;DHT22;1667;53.238;10.394;2023-09-19T13:01:46;23.60;91.10
3310;DHT22;1667;53.238;10.394;2023-09-19T13:07:04;23.60;90.80
3310;DHT22;1667;53.238;10.394;2023-09-19T13:12:38;23.70;90.80
3310;DHT22;1667;53.238;10.394;2023-09-19T13:17:43;23.70;90.90
3310;DHT22;1667;53.238;10.394;2023-09-19T13:22:44;23.70;90.30
3310;DHT22;1667;53.238;10.394;2023-09-19T13:27:50;23.70;90.20
3310;DHT22;1667;53.238;10.394;2023-09-19T13:32:52;23.70;90.10
3310;DHT22;1667;53.238;10.394;2023-09-19T13:37:52;23.80;90.50
3310;DHT22;1667;53.238;10.394;2023-09-19T13:42:54;23.80;90.20
3310;DHT22;1667;53.238;10.394;2023-09-19T13:47:54;23.90;89.50
3310;DHT22;1667;53.238;10.394;2023-09-19T13:52:55;24.00;90.50
3310;DHT22;1667;53.238;10.394;2023-09-19T13:57:57;24.00;90.30
3310;DHT22;1667;53.238;10.394;2023-09-19T14:02:57;24.10;90.20
3310;DHT22;1667;53.238;10.394;2023-09-19T14:08:00;24.10;90.30
3310;DHT22;1667;53.238;10.394;2023-09-19T14:13:03;24.10;89.70
3310;DHT22;1667;53.238;10.394;2023-09-19T14:18:07;24.20;89.90
3310;DHT22;1667;53.238;10.394;2023-09-19T14:23:07;24.20;89.50
3310;DHT22;1667;53.238;10.394;2023-09-19T14:28:09;24.20;88.60
3310;DHT22;1667;53.238;10.394;2023-09-19T14:33:08;24.20;89.10
3310;DHT22;1667;53.238;10.394;2023-09-19T14:38:08;24.20;88.50
3310;DHT22;1667;53.238;10.394;2023-09-19T14:43:10;24.30;89.40
3310;DHT22;1667;53.238;10.394;2023-09-19T14:48:11;24.30;87.80
3310;DHT22;1667;53.238;10.394;2023-09-19T14:53:11;24.20;87.90
3310;DHT22;1667;53.238;10.394;2023-09-19T14:58:13;24.20;88.90
3310;DHT22;1667;53.238;10.394;2023-09-19T15:03:13;24.10;88.70
3310;DHT22;1667;53.238;10.394;2023-09-19T15:08:14;24.00;88.40
3310;DHT22;1667;53.238;10.394;2023-09-19T15:13:23;23.90;87.90
3310;DHT22;1667;53.238;10.394;2023-09-19T15:18:26;23.80;88.50
3310;DHT22;1667;53.238;10.394;2023-09-19T15:23:27;23.70;88.90
3310;DHT22;1667;53.238;10.394;2023-09-19T15:28:30;23.60;88.30
3310;DHT22;1667;53.238;10.394;2023-09-19T15:33:33;23.60;89.40
3310;DHT22;1667;53.238;10.394;2023-09-19T15:38:56;23.60;89.20
3310;DHT22;1667;53.238;10.394;2023-09-19T15:43:59;23.50;88.60
3310;DHT22;1667;53.238;10.394;2023-09-19T15:49:00;23.40;89.80
3310;DHT22;1667;53.238;10.394;2023-09-19T15:54:08;23.40;89.80
3310;DHT22;1667;53.238;10.394;2023-09-19T15:59:18;23.40;90.10
3310;DHT22;1667;53.238;10.394;2023-09-19T16:04:19;23.30;89.80
3310;DHT22;1667;53.238;10.394;2023-09-19T16:09:21;23.20;90.00
3310;DHT22;1667;53.238;10.394;2023-09-19T16:14:23;23.10;90.10
3310;DHT22;1667;53.238;10.394;2023-09-19T16:19:26;23.00;89.80
3310;DHT22;1667;53.238;10.394;2023-09-19T16:24:26;22.90;90.10
3310;DHT22;1667;53.238;10.394;2023-09-19T16:29:27;22.80;90.30
3310;DHT22;1667;53.238;10.394;2023-09-19T16:34:26;22.70;90.20
3310;DHT22;1667;53.238;10.394;2023-09-19T16:39:26;22.60;90.40
3310;DHT22;1667;53.238;10.394;2023-09-19T16:44:27;22.50;90.30
3310;DHT22;1667;53.238;10.394;2023-09-19T16:49:28;22.40;90.20
3310;DHT22;1667;53.238;10.394;2023-09-19T16:54:28;22.30;90.50
3310;DHT22;1667;53.238;10.394;2023-09-19T16:59:30;22.20;90.30
3310;DHT22;1667;53.238;10.394;2023-09-19T17:04:30;22.20;90.40
3310;DHT22;1667;53.238;10.394;2023-09-19T17:10:09;22.10;90.40
3310;DHT22;1667;53.238;10.394;2023-09-19T17:15:12;22.00;90.40
3310;DHT22;1667;53.238;10.394;2023-09-19T17:20:13;22.00;90.70
3310;DHT22;1667;53.238;10.394;2023-09-19T17:25:17;21.90;90.40
3310;DHT22;1667;53.238;10.394;2023-09-19T17:30:18;21.80;90.40
3310;DHT22;1667;53.238;10.394;2023-09-19T17:35:20;21.70;90.80
3310;DHT22;1667;53.238;10.394;2023-09-19T17:40:21;21.60;90.70
3310;DHT22;1667;53.238;10.394;2023-09-19T17:45:25;21.60;90.80
3310;DHT22;1667;53.238;10.394;2023-09-19T17:50:26;21.60;90.90
3310;DHT22;1667;53.238;10.394;2023-09-19T17:55:28;21.50;91.00
3310;DHT22;1667;53.238;10.394;2023-09-19T18:00:31;21.50;90.90
3310;DHT22;1667;53.238;10.394;2023-09-19T18:05:33;21.50;91.10
3310;DHT22;1667;53.238;10.394;2023-09-19T18:10:37;21.40;91.30
3310;DHT22;1667;53.238;10.394;2023-09-19T18:15:39;21.40;91.20
3310;DHT22;1667;53.238;10.394;2023-09-19T18:20:39;21.30;91.20
3310;DHT22;1667;53.238;10.394;2023-09-19T18:25:41;21.20;91.00
3310;DHT22;1667;53.238;10.394;2023-09-19T18:30:44;21.20;91.30
3310;DHT22;1667;53.238;10.394;2023-09-19T18:35:45;21.10;91.20
3310;DHT22;1667;53.238;10.394;2023-09-19T18:40:45;21.10;91.10
3310;DHT22;1667;53.238;10.394;2023-09-19T18:45:57;21.10;91.20
3310;DHT22;1667;53.238;10.394;2023-09-19T18:51:04;21.10;91.30
3310;DHT22;1667;53.238;10.394;2023-09-19T18:56:05;21.00;91.40
3310;DHT22;1667;53.238;10.394;2023-09-19T19:01:08;21.00;91.40
3310;DHT22;1667;53.238;10.394;2023-09-19T19:06:12;21.00;91.50
3310;DHT22;1667;53.238;10.394;2023-09-19T19:11:14;20.90;91.60
3310;DHT22;1667;53.238;10.394;2023-09-19T19:16:19;20.90;91.70
3310;DHT22;1667;53.238;10.394;2023-09-19T19:21:20;20.90;91.70
3310;DHT22;1667;53.238;10.394;2023-09-19T19:26:22;20.90;91.70
3310;DHT22;1667;53.238;10.394;2023-09-19T19:31:25;20.80;91.80
3310;DHT22;1667;53.238;10.394;2023-09-19T19:36:25;20.80;91.70
3310;DHT22;1667;53.238;10.394;2023-09-19T19:41:28;20.80;91.60
3310;DHT22;1667;53.238;10.394;2023-09-19T19:46:30;20.80;91.80
3310;DHT22;1667;53.238;10.394;2023-09-19T19:51:30;20.80;91.90
3310;DHT22;1667;53.238;10.394;2023-09-19T19:56:34;20.70;91.90
3310;DHT22;1667;53.238;10.394;2023-09-19T20:01:35;20.70;91.90
3310;DHT22;1667;53.238;10.394;2023-09-19T20:06:36;20.70;91.90
3310;DHT22;1667;53.238;10.394;2023-09-19T20:11:38;20.70;92.10
3310;DHT22;1667;53.238;10.394;2023-09-19T20:16:39;20.60;92.10
3310;DHT22;1667;53.238;10.394;2023-09-19T20:21:45;20.60;92.20
3310;DHT22;1667;53.238;10.394;2023-09-19T20:26:45;20.60;92.20
3310;DHT22;1667;53.238;10.394;2023-09-19T20:31:47;20.60;92.60
3310;DHT22;1667;53.238;10.394;2023-09-19T20:36:49;20.60;92.30
3310;DHT22;1667;53.238;10.394;2023-09-19T20:41:50;20.60;92.20
3310;DHT22;1667;53.238;10.394;2023-09-19T20:46:56;20.60;92.60
3310;DHT22;1667;53.238;10.394;2023-09-19T20:51:56;20.60;92.50
3310;DHT22;1667;53.238;10.394;2023-09-19T20:56:56;20.50;92.40
3310;DHT22;1667;53.238;10.394;2023-09-19T21:02:01;20.50;92.60
3310;DHT22;1667;53.238;10.394;2023-09-19T21:07:01;20.50;92.70
3310;DHT22;1667;53.238;10.394;2023-09-19T21:12:03;20.50;92.60
3310;DHT22;1667;53.238;10.394;2023-09-19T21:17:04;20.50;92.70
3310;DHT22;1667;53.238;10.394;2023-09-19T21:22:05;20.40;92.70
3310;DHT22;1667;53.238;10.394;2023-09-19T21:27:06;20.40;92.70
3310;DHT22;1667;53.238;10.394;2023-09-19T21:32:07;20.40;92.90
3310;DHT22;1667;53.238;10.394;2023-09-19T21:37:09;20.40;92.90
3310;DHT22;1667;53.238;10.394;2023-09-19T21:42:12;20.40;93.00
3310;DHT22;1667;53.238;10.394;2023-09-19T21:47:31;20.40;92.90
3310;DHT22;1667;53.238;10.394;2023-09-19T21:52:31;20.40;92.90
3310;DHT22;1667;53.238;10.394;2023-09-19T21:57:32;20.30;93.00
3310;DHT22;1667;53.238;10.394;2023-09-19T22:02:34;20.40;93.20
3310;DHT22;1667;53.238;10.394;2023-09-19T22:07:35;20.40;93.20
3310;DHT22;1667;53.238;10.394;2023-09-19T22:12:37;20.30;93.30
3310;DHT22;1667;53.238;10.394;2023-09-19T22:17:38;20.40;93.30
3310;DHT22;1667;53.238;10.394;2023-09-19T22:22:39;20.40;93.20
3310;DHT22;1667;53.238;10.394;2023-09-19T22:27:39;20.30;93.10
3310;DHT22;1667;53.238;10.394;2023-09-19T22:32:42;20.40;93.20
3310;DHT22;1667;53.238;10.394;2023-09-19T22:37:42;20.30;93.20
3310;DHT22;1667;53.238;10.394;2023-09-19T22:42:44;20.30;93.30
3310;DHT22;1667;53.238;10.394;2023-09-19T22:47:49;20.30;93.30
3310;DHT22;1667;53.238;10.394;2023-09-19T22:52:49;20.30;93.40
3310;DHT22;1667;53.238;10.394;2023-09-19T22:57:52;20.30;93.40
3310;DHT22;1667;53.238;10.394;2023-09-19T23:02:56;20.30;93.50
3310;DHT22;1667;53.238;10.394;2023-09-19T23:07:57;20.30;93.60
3310;DHT22;1667;53.238;10.394;2023-09-19T23:12:59;20.30;93.60
3310;DHT22;1667;53.238;10.394;2023-09-19T23:18:01;20.30;93.70
3310;DHT22;1667;53.238;10.394;2023-09-19T23:23:01;20.30;93.70
3310;DHT22;1667;53.238;10.394;2023-09-19T23:28:03;20.30;94.00
3310;DHT22;1667;53.238;10.394;2023-09-19T23:33:06;20.30;93.80
3310;DHT22;1667;53.238;10.394;2023-09-19T23:38:06;20.30;94.00
3310;DHT22;1667;53.238;10.394;2023-09-19T23:43:07;20.20;94.10
3310;DHT22;1667;53.238;10.394;2023-09-19T23:48:12;20.20;94.30
3310;DHT22;1667;53.238;10.394;2023-09-19T23:53:14;20.20;94.40
3310;DHT22;1667;53.238;10.394;2023-09-19T23:58:15;20.20;94.40
